In Rescue
 
Wind Gusting 00 knots
03
September 18, 2020 10:00 PM EDT
Weather Information
Wind Direction
  010 °
Wind Speed
  03 kt (3 mph)
Wind Gust
  00 kt (0 mph)
Altimeter
30.28 in
Visibility
10 SM
Temperature
11° C
52° F
Dewpoint
06° C
43° F
Humidity
72%
Sky Condition
Clear
VFR

METAR KIMS 190200Z AUTO 01003KT 10SM CLR 11/06 A3028 RMK AO1

FAA Disclaimer: The data displayed is for advisory purposes only and is not to be used for flight planning or operations.